createdAt,value
2022-12-27T00:00:31.974Z,0
2022-12-27T00:01:32.314Z,0
2022-12-27T00:02:32.694Z,0
2022-12-27T00:03:32.935Z,0
2022-12-27T00:04:33.148Z,0
2022-12-27T00:05:33.303Z,0
2022-12-27T00:06:33.477Z,0
2022-12-27T00:07:33.634Z,0
2022-12-27T00:08:33.796Z,0
2022-12-27T00:09:33.947Z,0
2022-12-27T00:10:34.114Z,0
2022-12-27T00:11:34.280Z,0
2022-12-27T00:12:34.446Z,0
2022-12-27T00:13:34.588Z,0
2022-12-27T00:14:34.757Z,0
2022-12-27T00:15:34.965Z,0
2022-12-27T00:16:35.170Z,0
2022-12-27T00:17:35.596Z,0
2022-12-27T00:18:35.758Z,0
2022-12-27T00:19:35.903Z,0
2022-12-27T00:20:36.063Z,0
2022-12-27T00:21:36.225Z,0
2022-12-27T00:22:36.385Z,0
2022-12-27T00:23:36.536Z,0
2022-12-27T00:24:36.697Z,0
2022-12-27T00:25:36.860Z,0
2022-12-27T00:26:37.016Z,0
2022-12-27T00:27:37.171Z,0
2022-12-27T00:28:37.317Z,0
2022-12-27T00:29:37.478Z,0
2022-12-27T00:30:37.629Z,0
2022-12-27T00:31:37.819Z,0
2022-12-27T00:32:38.073Z,0
2022-12-27T00:33:38.227Z,0
2022-12-27T00:34:38.388Z,0
2022-12-27T00:35:38.578Z,0
2022-12-27T00:36:38.762Z,0
2022-12-27T00:37:38.939Z,0
2022-12-27T00:38:39.091Z,0
2022-12-27T00:39:39.254Z,0
2022-12-27T00:40:39.401Z,0
2022-12-27T00:41:39.590Z,0
2022-12-27T00:42:39.836Z,0
2022-12-27T00:43:39.999Z,0
2022-12-27T00:44:40.164Z,0
2022-12-27T00:45:40.351Z,0
2022-12-27T00:46:40.658Z,0
2022-12-27T00:47:40.826Z,0
2022-12-27T00:48:40.999Z,0
2022-12-27T00:49:41.166Z,0
2022-12-27T00:50:41.330Z,0
2022-12-27T00:51:41.477Z,0
2022-12-27T00:52:41.640Z,0
2022-12-27T00:53:41.806Z,0
2022-12-27T00:54:41.969Z,0
2022-12-27T00:55:42.135Z,0
2022-12-27T00:56:42.293Z,0
2022-12-27T00:57:42.444Z,0
2022-12-27T00:58:42.605Z,0
2022-12-27T00:59:42.774Z,0
2022-12-27T01:00:42.953Z,0
2022-12-27T01:01:43.356Z,0
2022-12-27T01:02:43.784Z,0
2022-12-27T01:03:43.976Z,0
2022-12-27T01:04:44.340Z,0
2022-12-27T01:05:44.499Z,0
2022-12-27T01:06:44.666Z,0
2022-12-27T01:07:44.825Z,0
2022-12-27T01:08:44.975Z,0
2022-12-27T01:09:45.170Z,0
2022-12-27T01:10:45.326Z,0
2022-12-27T01:11:45.475Z,0
2022-12-27T01:12:45.623Z,0
2022-12-27T01:13:45.801Z,0
2022-12-27T01:14:46.010Z,0
2022-12-27T01:15:46.179Z,0
2022-12-27T01:16:46.400Z,0
2022-12-27T01:17:46.644Z,0
2022-12-27T01:18:46.806Z,0
2022-12-27T01:19:46.980Z,0
2022-12-27T01:20:47.128Z,0
2022-12-27T01:21:47.292Z,0
2022-12-27T01:22:47.461Z,0
2022-12-27T01:23:47.613Z,0
2022-12-27T01:24:47.772Z,0
2022-12-27T01:25:47.954Z,0
2022-12-27T01:26:48.136Z,0
2022-12-27T01:27:48.303Z,0
2022-12-27T01:28:48.469Z,0
2022-12-27T01:29:48.667Z,0
2022-12-27T01:30:48.836Z,0
2022-12-27T01:31:49.062Z,0
2022-12-27T01:32:49.420Z,0
2022-12-27T01:33:49.605Z,0
2022-12-27T01:34:49.808Z,0
2022-12-27T01:35:49.968Z,0
2022-12-27T01:36:50.133Z,0
2022-12-27T01:37:50.288Z,0
2022-12-27T01:38:50.444Z,0
2022-12-27T01:39:50.623Z,0
2022-12-27T01:40:50.776Z,0
2022-12-27T01:41:50.934Z,0
2022-12-27T01:42:51.115Z,0
2022-12-27T01:43:51.265Z,0
2022-12-27T01:44:51.419Z,0
2022-12-27T01:45:51.584Z,0
2022-12-27T01:46:51.855Z,0
2022-12-27T01:47:52.008Z,0
2022-12-27T01:48:52.162Z,0
2022-12-27T01:49:52.504Z,0
2022-12-27T01:50:52.657Z,0
2022-12-27T01:51:52.814Z,0
2022-12-27T01:52:52.965Z,0
2022-12-27T01:53:53.140Z,0
2022-12-27T01:54:53.299Z,0
2022-12-27T01:55:53.465Z,0
2022-12-27T01:56:53.627Z,0
2022-12-27T01:57:53.783Z,0
2022-12-27T01:58:53.953Z,0
2022-12-27T01:59:54.103Z,0
2022-12-27T02:00:54.304Z,0
2022-12-27T02:01:54.730Z,0
2022-12-27T02:02:55.196Z,0
2022-12-27T02:03:55.456Z,0
2022-12-27T02:04:55.624Z,0
2022-12-27T02:05:55.827Z,0
2022-12-27T02:06:55.978Z,0
2022-12-27T02:07:56.151Z,0
2022-12-27T02:08:56.312Z,0
2022-12-27T02:09:56.473Z,0
2022-12-27T02:10:56.643Z,0
2022-12-27T02:11:56.810Z,0
2022-12-27T02:12:57.236Z,0
2022-12-27T02:13:57.423Z,0
2022-12-27T02:14:57.576Z,0
2022-12-27T02:15:57.734Z,0
2022-12-27T02:16:57.982Z,0
2022-12-27T02:17:58.588Z,0
2022-12-27T02:18:58.743Z,0
2022-12-27T02:19:58.909Z,0
2022-12-27T02:20:59.061Z,0
2022-12-27T02:21:59.225Z,0
2022-12-27T02:22:59.374Z,0
2022-12-27T02:23:59.532Z,0
2022-12-27T02:25:00.153Z,0
2022-12-27T02:26:00.662Z,0
2022-12-27T02:27:00.826Z,0
2022-12-27T02:28:00.981Z,0
2022-12-27T02:29:01.130Z,0
2022-12-27T02:30:01.306Z,0
2022-12-27T02:31:01.508Z,0
2022-12-27T02:32:01.801Z,0
2022-12-27T02:33:01.972Z,0
2022-12-27T02:34:02.137Z,0
2022-12-27T02:35:02.332Z,0
2022-12-27T02:36:02.515Z,0
2022-12-27T02:37:02.665Z,0
2022-12-27T02:38:02.831Z,0
2022-12-27T02:39:03.055Z,0
2022-12-27T02:40:03.228Z,0
2022-12-27T02:41:03.383Z,0
2022-12-27T02:42:03.561Z,0
2022-12-27T02:43:03.735Z,0
2022-12-27T02:44:03.889Z,0
2022-12-27T02:45:04.073Z,0
2022-12-27T02:46:04.248Z,0
2022-12-27T02:47:04.524Z,0
2022-12-27T02:48:04.693Z,0
2022-12-27T02:49:04.845Z,0
2022-12-27T02:50:05.052Z,0
2022-12-27T02:51:05.245Z,0
2022-12-27T02:52:05.393Z,0
2022-12-27T02:53:05.537Z,0
2022-12-27T02:54:05.830Z,0
2022-12-27T02:55:05.995Z,0
2022-12-27T02:56:06.150Z,0
2022-12-27T02:57:06.294Z,0
2022-12-27T02:58:06.455Z,0
2022-12-27T02:59:06.611Z,0
2022-12-27T03:00:06.759Z,0
2022-12-27T03:01:06.963Z,0
2022-12-27T03:02:07.555Z,0
2022-12-27T03:03:08.218Z,0
2022-12-27T03:04:08.476Z,0
2022-12-27T03:05:08.641Z,0
2022-12-27T03:06:08.827Z,0
2022-12-27T03:07:09.037Z,0
2022-12-27T03:08:09.199Z,0
2022-12-27T03:09:09.361Z,0
2022-12-27T03:10:09.562Z,0
2022-12-27T03:11:09.725Z,0
2022-12-27T03:12:09.892Z,0
2022-12-27T03:13:10.048Z,0
2022-12-27T03:14:10.202Z,0
2022-12-27T03:15:10.347Z,0
2022-12-27T03:16:10.625Z,0
2022-12-27T03:17:11.031Z,0
2022-12-27T03:18:11.189Z,0
2022-12-27T03:19:11.361Z,0
2022-12-27T03:20:11.520Z,0
2022-12-27T03:21:11.706Z,0
2022-12-27T03:22:11.842Z,0
2022-12-27T03:23:12.021Z,0
2022-12-27T03:24:12.194Z,0
2022-12-27T03:25:12.347Z,0
2022-12-27T03:26:12.502Z,0
2022-12-27T03:27:12.671Z,0
2022-12-27T03:28:12.852Z,0
2022-12-27T03:29:13.004Z,0
2022-12-27T03:30:13.151Z,0
2022-12-27T03:31:13.387Z,0
2022-12-27T03:32:13.713Z,0
2022-12-27T03:33:13.874Z,0
2022-12-27T03:34:14.026Z,0
2022-12-27T03:35:14.180Z,0
2022-12-27T03:36:14.342Z,0
2022-12-27T03:37:14.486Z,0
2022-12-27T03:38:14.651Z,0
2022-12-27T03:39:14.819Z,0
2022-12-27T03:40:14.991Z,0
2022-12-27T03:41:15.184Z,0
2022-12-27T03:42:15.337Z,0
2022-12-27T03:43:15.518Z,0
2022-12-27T03:44:15.720Z,0
2022-12-27T03:45:15.871Z,0
2022-12-27T03:46:16.128Z,0
2022-12-27T03:47:16.562Z,0
2022-12-27T03:48:16.726Z,0
2022-12-27T03:49:16.891Z,0
2022-12-27T03:50:17.085Z,0
2022-12-27T03:51:17.298Z,0
2022-12-27T03:52:17.544Z,0
2022-12-27T03:53:17.700Z,0
2022-12-27T03:54:17.855Z,0
2022-12-27T03:55:18.003Z,0
2022-12-27T03:56:18.160Z,0
2022-12-27T03:57:18.319Z,0
2022-12-27T03:58:18.478Z,0
2022-12-27T03:59:18.645Z,0
2022-12-27T04:00:18.807Z,0
2022-12-27T04:01:19.028Z,0
2022-12-27T04:02:19.662Z,0
2022-12-27T04:03:20.647Z,0
2022-12-27T04:04:20.958Z,0
2022-12-27T04:05:21.121Z,0
2022-12-27T04:06:21.304Z,0
2022-12-27T04:07:21.479Z,0
2022-12-27T04:08:21.643Z,0
2022-12-27T04:09:21.812Z,0
2022-12-27T04:10:21.978Z,0
2022-12-27T04:11:22.169Z,0
2022-12-27T04:12:22.317Z,0
2022-12-27T04:13:22.501Z,0
2022-12-27T04:14:22.670Z,0
2022-12-27T04:15:22.842Z,0
2022-12-27T04:16:23.082Z,0
2022-12-27T04:17:23.475Z,0
2022-12-27T04:18:23.634Z,0
2022-12-27T04:19:23.789Z,0
2022-12-27T04:20:23.956Z,0
2022-12-27T04:21:24.105Z,0
2022-12-27T04:22:24.261Z,0
2022-12-27T04:23:24.454Z,0
2022-12-27T04:24:24.616Z,0
2022-12-27T04:25:24.768Z,0
2022-12-27T04:26:24.946Z,0
2022-12-27T04:27:25.130Z,0
2022-12-27T04:28:25.298Z,0
2022-12-27T04:29:25.465Z,0
2022-12-27T04:30:25.599Z,0
2022-12-27T04:31:25.819Z,0
2022-12-27T04:32:26.099Z,0
2022-12-27T04:33:26.274Z,0
2022-12-27T04:34:26.454Z,0
2022-12-27T04:35:26.629Z,0
2022-12-27T04:36:26.790Z,0
2022-12-27T04:37:26.949Z,0
2022-12-27T04:38:27.112Z,0
2022-12-27T04:39:27.271Z,0
2022-12-27T04:40:27.452Z,0
2022-12-27T04:41:27.611Z,0
2022-12-27T04:42:27.766Z,0
2022-12-27T04:43:27.915Z,0
2022-12-27T04:44:28.086Z,0
2022-12-27T04:45:28.249Z,0
2022-12-27T04:46:28.444Z,0
2022-12-27T04:47:28.738Z,0
2022-12-27T04:48:28.894Z,0
2022-12-27T04:49:29.050Z,0
2022-12-27T04:50:29.225Z,0
2022-12-27T04:51:29.379Z,0
2022-12-27T04:52:29.541Z,0
2022-12-27T04:53:29.695Z,0
2022-12-27T04:54:29.861Z,0
2022-12-27T04:55:30.037Z,0
2022-12-27T04:56:30.190Z,0
2022-12-27T04:57:30.347Z,0
2022-12-27T04:58:30.537Z,0
2022-12-27T04:59:30.709Z,0
2022-12-27T05:00:30.878Z,0
2022-12-27T05:01:31.173Z,0
2022-12-27T05:02:31.830Z,0
2022-12-27T05:03:32.663Z,0
2022-12-27T05:04:32.991Z,0
2022-12-27T05:05:33.166Z,0
2022-12-27T05:06:33.323Z,0
2022-12-27T05:07:33.491Z,0
2022-12-27T05:08:33.695Z,0
2022-12-27T05:09:33.879Z,0
2022-12-27T05:10:34.034Z,0
2022-12-27T05:11:34.193Z,0
2022-12-27T05:12:34.351Z,0
2022-12-27T05:13:34.541Z,0
2022-12-27T05:14:34.693Z,0
2022-12-27T05:15:34.852Z,0
2022-12-27T05:16:35.094Z,0
2022-12-27T05:17:35.434Z,0
2022-12-27T05:18:35.626Z,0
2022-12-27T05:19:35.796Z,0
2022-12-27T05:20:35.952Z,0
2022-12-27T05:21:36.111Z,0
2022-12-27T05:22:36.256Z,0
2022-12-27T05:23:36.420Z,0
2022-12-27T05:24:36.586Z,0
2022-12-27T05:25:36.750Z,0
2022-12-27T05:26:36.909Z,0
2022-12-27T05:27:37.082Z,0
2022-12-27T05:28:37.245Z,0
2022-12-27T05:29:37.395Z,0
2022-12-27T05:30:37.556Z,0
2022-12-27T05:31:37.798Z,0
2022-12-27T05:32:38.128Z,0
2022-12-27T05:33:38.283Z,0
2022-12-27T05:34:38.425Z,0
2022-12-27T05:35:38.572Z,0
2022-12-27T05:36:38.734Z,0
2022-12-27T05:37:38.894Z,0
2022-12-27T05:38:39.040Z,0
2022-12-27T05:39:39.201Z,0
2022-12-27T05:40:39.354Z,0
2022-12-27T05:41:39.525Z,0
2022-12-27T05:42:39.680Z,0
2022-12-27T05:43:39.841Z,0
2022-12-27T05:44:40.002Z,0
2022-12-27T05:45:40.175Z,0
2022-12-27T05:46:40.386Z,0
2022-12-27T05:47:40.631Z,0
2022-12-27T05:48:40.818Z,0
2022-12-27T05:49:40.980Z,0
2022-12-27T05:50:41.144Z,0
2022-12-27T05:51:41.305Z,0
2022-12-27T05:52:41.616Z,0
2022-12-27T05:53:41.786Z,0
2022-12-27T05:54:42.046Z,0
2022-12-27T05:55:42.209Z,0
2022-12-27T05:56:42.390Z,0
2022-12-27T05:57:42.557Z,0
2022-12-27T05:58:42.716Z,0
2022-12-27T05:59:42.857Z,0
2022-12-27T06:00:43.033Z,0
2022-12-27T06:01:43.320Z,0
2022-12-27T06:02:44.235Z,0
2022-12-27T06:03:44.899Z,0
2022-12-27T06:04:45.049Z,0
2022-12-27T06:05:45.200Z,0
2022-12-27T06:06:45.370Z,0
2022-12-27T06:07:45.557Z,0
2022-12-27T06:08:45.725Z,0
2022-12-27T06:09:45.882Z,0
2022-12-27T06:10:46.048Z,0
2022-12-27T06:11:46.224Z,0
2022-12-27T06:12:46.399Z,0
2022-12-27T06:13:46.570Z,0
2022-12-27T06:14:46.728Z,0
2022-12-27T06:15:46.921Z,0
2022-12-27T06:16:47.114Z,0
2022-12-27T06:17:47.398Z,0
2022-12-27T06:18:47.587Z,0
2022-12-27T06:19:50.164Z,0
2022-12-27T06:20:57.558Z,0
2022-12-27T06:21:57.707Z,0
2022-12-27T06:22:57.857Z,0
2022-12-27T06:23:58.008Z,0
2022-12-27T06:24:58.208Z,0
2022-12-27T06:25:58.368Z,0
2022-12-27T06:26:58.527Z,0
2022-12-27T06:27:58.682Z,0
2022-12-27T06:28:58.826Z,0
2022-12-27T06:29:58.990Z,0
2022-12-27T06:30:59.165Z,0
2022-12-27T06:31:59.356Z,0
2022-12-27T06:32:59.775Z,0
2022-12-27T06:33:59.929Z,0
2022-12-27T06:35:00.124Z,0
2022-12-27T06:36:00.276Z,0
2022-12-27T06:37:00.443Z,0
2022-12-27T06:38:00.617Z,0
2022-12-27T06:39:00.782Z,0
2022-12-27T06:40:00.967Z,0
2022-12-27T06:41:01.127Z,0
2022-12-27T06:42:01.283Z,0
2022-12-27T06:43:01.435Z,0
2022-12-27T06:44:02.445Z,0
2022-12-27T06:45:02.594Z,0
2022-12-27T06:46:02.793Z,2
2022-12-27T06:47:03.365Z,3
2022-12-27T06:48:03.574Z,5
2022-12-27T06:49:03.724Z,6
2022-12-27T06:50:03.870Z,8
2022-12-27T06:51:04.045Z,10
2022-12-27T06:52:04.215Z,11
2022-12-27T06:53:04.366Z,15
2022-12-27T06:54:04.523Z,19
2022-12-27T06:55:04.713Z,24
2022-12-27T06:56:04.898Z,27
2022-12-27T06:57:05.046Z,27
2022-12-27T06:58:05.198Z,30
2022-12-27T06:59:05.352Z,33
2022-12-27T07:00:05.521Z,37
2022-12-27T07:01:05.711Z,41
2022-12-27T07:02:06.102Z,46
2022-12-27T07:03:06.870Z,51
2022-12-27T07:04:07.128Z,57
2022-12-27T07:05:07.278Z,57
2022-12-27T07:06:07.453Z,64
2022-12-27T07:07:10.809Z,64
2022-12-27T07:08:16.297Z,68
2022-12-27T07:09:16.466Z,71
2022-12-27T07:10:16.620Z,71
2022-12-27T07:11:16.764Z,71
2022-12-27T07:12:16.952Z,71
2022-12-27T07:13:17.319Z,71
2022-12-27T07:14:17.483Z,79
2022-12-27T07:15:17.639Z,79
2022-12-27T07:16:17.812Z,79
2022-12-27T07:17:18.070Z,86.96
2022-12-27T07:18:18.215Z,96
2022-12-27T07:19:18.404Z,96
2022-12-27T07:20:18.555Z,110
2022-12-27T07:21:18.713Z,110
2022-12-27T07:22:18.889Z,110
2022-12-27T07:23:19.574Z,130
2022-12-27T07:24:19.772Z,169.92
2022-12-27T07:25:19.957Z,189.92
2022-12-27T07:26:20.133Z,209.92
2022-12-27T07:27:20.330Z,240
2022-12-27T07:28:20.481Z,269.92
2022-12-27T07:29:20.627Z,300
2022-12-27T07:30:20.788Z,329.92
2022-12-27T07:31:21.053Z,329.92
2022-12-27T07:32:21.412Z,369.92
2022-12-27T07:33:21.598Z,369.92
2022-12-27T07:34:21.745Z,409.92
2022-12-27T07:35:21.905Z,409.92
2022-12-27T07:36:22.063Z,459.84
2022-12-27T07:37:22.233Z,459.84
2022-12-27T07:38:22.393Z,459.84
2022-12-27T07:39:22.533Z,459.84
2022-12-27T07:40:22.688Z,509.76
2022-12-27T07:41:22.847Z,509.76
2022-12-27T07:42:23.017Z,569.92
2022-12-27T07:43:23.207Z,569.92
2022-12-27T07:44:23.386Z,629.76
2022-12-27T07:45:23.555Z,629.76
2022-12-27T07:46:23.703Z,699.52
2022-12-27T07:47:23.890Z,699.52
2022-12-27T07:48:24.058Z,699.52
2022-12-27T07:49:24.208Z,699.52
2022-12-27T07:50:24.358Z,699.52
2022-12-27T07:51:24.514Z,779.52
2022-12-27T07:52:24.688Z,859.52
2022-12-27T07:53:24.856Z,949.76
2022-12-27T07:54:25.026Z,1059.84
2022-12-27T07:55:25.184Z,1179.52
2022-12-27T07:56:26.319Z,1179.52
2022-12-27T07:57:27.489Z,1299.84
2022-12-27T07:58:27.642Z,1299.84
2022-12-27T07:59:27.801Z,1299.84
2022-12-27T08:00:27.995Z,1299.84
2022-12-27T08:01:28.508Z,1299.84
2022-12-27T08:02:29.410Z,1299.84
2022-12-27T08:03:30.027Z,1299.84
2022-12-27T08:04:30.295Z,1299.84
2022-12-27T08:05:30.461Z,1299.84
2022-12-27T08:06:30.629Z,1299.84
2022-12-27T08:07:30.782Z,1359.36
2022-12-27T08:08:30.936Z,1359.36
2022-12-27T08:09:31.093Z,1359.36
2022-12-27T08:10:31.275Z,1359.36
2022-12-27T08:11:31.439Z,1359.36
2022-12-27T08:12:31.600Z,1359.36
2022-12-27T08:13:31.764Z,1359.36
2022-12-27T08:14:31.919Z,1359.36
2022-12-27T08:15:32.092Z,1219.84
2022-12-27T08:16:32.305Z,1219.84
2022-12-27T08:17:32.592Z,1219.84
2022-12-27T08:18:32.754Z,1219.84
2022-12-27T08:19:32.917Z,1079.68
2022-12-27T08:20:33.078Z,1079.68
2022-12-27T08:21:33.231Z,1079.68
2022-12-27T08:22:33.381Z,969.6
2022-12-27T08:23:33.549Z,969.6
2022-12-27T08:24:33.707Z,969.6
2022-12-27T08:25:33.875Z,969.6
2022-12-27T08:26:34.085Z,869.76
2022-12-27T08:27:34.236Z,869.76
2022-12-27T08:28:34.384Z,869.76
2022-12-27T08:29:34.537Z,869.76
2022-12-27T08:30:34.711Z,779.52
2022-12-27T08:31:34.948Z,779.52
2022-12-27T08:32:35.097Z,779.52
2022-12-27T08:33:35.245Z,699.52
2022-12-27T08:34:35.399Z,699.52
2022-12-27T08:35:52.517Z,629.76
2022-12-27T08:36:56.330Z,619.84
2022-12-27T08:37:57.408Z,619.84
2022-12-27T08:38:57.573Z,619.84
2022-12-27T08:40:02.460Z,619.84
2022-12-27T08:41:03.589Z,659.84
2022-12-27T08:42:03.752Z,659.84
2022-12-27T08:43:03.920Z,699.52
2022-12-27T08:44:04.075Z,699.52
2022-12-27T08:45:04.238Z,769.92
2022-12-27T08:46:04.401Z,849.92
2022-12-27T08:47:04.680Z,849.92
2022-12-27T08:48:04.863Z,1059.84
2022-12-27T08:49:05.181Z,1200
2022-12-27T08:50:05.360Z,1319.68
2022-12-27T08:51:10.619Z,1319.68
2022-12-27T08:52:24.844Z,1459.2
2022-12-27T08:53:24.997Z,1459.2
2022-12-27T08:54:25.146Z,1619.2
2022-12-27T08:55:25.318Z,1619.2
2022-12-27T08:56:25.492Z,1619.2
2022-12-27T08:57:25.707Z,1619.2
2022-12-27T08:58:25.859Z,1619.2
2022-12-27T08:59:26.011Z,1619.2
2022-12-27T09:00:26.229Z,1799.68
2022-12-27T09:01:26.567Z,1978.88
2022-12-27T09:02:27.150Z,1978.88
2022-12-27T09:03:27.552Z,2179.84
2022-12-27T09:04:27.794Z,2400
2022-12-27T09:05:27.953Z,2400
2022-12-27T09:06:28.118Z,2639.36
2022-12-27T09:07:28.262Z,2639.36
2022-12-27T09:08:28.423Z,2639.36
2022-12-27T09:09:28.579Z,2639.36
2022-12-27T09:10:28.744Z,2639.36
2022-12-27T09:11:28.894Z,2639.36
2022-12-27T09:12:29.062Z,2639.36
2022-12-27T09:13:29.228Z,2918.4
2022-12-27T09:14:29.407Z,2918.4
2022-12-27T09:15:29.627Z,2918.4
2022-12-27T09:16:30.076Z,2918.4
2022-12-27T09:17:30.263Z,2918.4
2022-12-27T09:18:30.430Z,2918.4
2022-12-27T09:19:30.606Z,2918.4
2022-12-27T09:20:30.755Z,2618.88
2022-12-27T09:21:30.921Z,2618.88
2022-12-27T09:22:31.071Z,2618.88
2022-12-27T09:23:31.230Z,2897.92
2022-12-27T09:24:31.398Z,2897.92
2022-12-27T09:25:31.584Z,2897.92
2022-12-27T09:26:31.896Z,3200
2022-12-27T09:27:32.093Z,3200
2022-12-27T09:28:32.260Z,3200
2022-12-27T09:29:32.426Z,3200
2022-12-27T09:30:32.591Z,3200
2022-12-27T09:31:32.808Z,3200
2022-12-27T09:32:33.319Z,3558.4
2022-12-27T09:33:33.486Z,3939.84
2022-12-27T09:34:33.664Z,6016
2022-12-27T09:35:38.330Z,8719.36
2022-12-27T09:36:38.952Z,8335.36
2022-12-27T09:37:39.109Z,7639.04
2022-12-27T09:38:39.279Z,6778.88
2022-12-27T09:39:39.448Z,6016
2022-12-27T09:40:39.608Z,6016
2022-12-27T09:42:46.194Z,6016
2022-12-27T09:44:16.299Z,9436.16
2022-12-27T09:45:16.456Z,12195.84
2022-12-27T09:46:16.653Z,12195.84
2022-12-27T09:47:16.930Z,10792.96
2022-12-27T09:48:17.093Z,10792.96
2022-12-27T09:49:17.267Z,9697.28
2022-12-27T09:50:17.422Z,8698.88
2022-12-27T09:51:17.596Z,8698.88
2022-12-27T09:52:17.746Z,9999.36
2022-12-27T09:53:17.890Z,12195.84
2022-12-27T09:54:18.064Z,13598.72
2022-12-27T09:55:18.223Z,13598.72
2022-12-27T09:56:18.602Z,13598.72
2022-12-27T09:57:20.376Z,13598.72
2022-12-27T09:58:21.169Z,13598.72
2022-12-27T09:59:21.346Z,13598.72
2022-12-27T10:00:30.314Z,13598.72
2022-12-27T10:01:39.119Z,13199.36
2022-12-27T10:02:39.653Z,13199.36
2022-12-27T10:03:40.069Z,13199.36
2022-12-27T10:05:10.256Z,13393.92
2022-12-27T10:06:22.885Z,13598.72
2022-12-27T10:07:23.036Z,11991.04
2022-12-27T10:08:23.181Z,11991.04
2022-12-27T10:09:23.334Z,11991.04
2022-12-27T10:10:23.497Z,11991.04
2022-12-27T10:11:23.695Z,11991.04
2022-12-27T10:12:28.068Z,11991.04
2022-12-27T10:13:32.344Z,10792.96
2022-12-27T10:14:32.514Z,9538.56
2022-12-27T10:15:32.687Z,8576
2022-12-27T10:16:32.862Z,7618.56
2022-12-27T10:17:33.017Z,7618.56
2022-12-27T10:18:33.172Z,7618.56
2022-12-27T10:19:33.360Z,7618.56
2022-12-27T10:20:33.545Z,7618.56
2022-12-27T10:21:33.711Z,8535.04
2022-12-27T10:22:33.890Z,8535.04
2022-12-27T10:23:34.042Z,8535.04
2022-12-27T10:24:34.189Z,8535.04
2022-12-27T10:25:34.339Z,8535.04
2022-12-27T10:26:34.711Z,7577.6
2022-12-27T10:27:34.869Z,6799.36
2022-12-27T10:28:35.074Z,6016
2022-12-27T10:29:35.226Z,6016
2022-12-27T10:30:35.375Z,5376
2022-12-27T10:31:35.615Z,5376
2022-12-27T10:32:36.002Z,5376
2022-12-27T10:33:36.169Z,6016
2022-12-27T10:34:36.329Z,17192.96
2022-12-27T10:35:36.485Z,15390.72
2022-12-27T10:36:36.643Z,15390.72
2022-12-27T10:37:36.794Z,15390.72
2022-12-27T10:38:36.959Z,15390.72
2022-12-27T10:39:37.122Z,15390.72
2022-12-27T10:40:37.285Z,15390.72
2022-12-27T10:41:37.444Z,15390.72
2022-12-27T10:42:37.603Z,15390.72
2022-12-27T10:43:37.748Z,15390.72
2022-12-27T10:44:37.904Z,15390.72
2022-12-27T10:45:38.074Z,16599.04
2022-12-27T10:46:38.546Z,16599.04
2022-12-27T10:47:38.831Z,18595.84
2022-12-27T10:49:11.149Z,18595.84
2022-12-27T10:50:22.305Z,20992
2022-12-27T10:51:22.459Z,22794.24
2022-12-27T10:52:22.633Z,25190.4
2022-12-27T10:53:22.963Z,25190.4
2022-12-27T10:54:23.115Z,25190.4
2022-12-27T10:55:23.285Z,27791.36
2022-12-27T10:56:23.435Z,27791.36
2022-12-27T10:57:23.577Z,27791.36
2022-12-27T10:58:23.730Z,27791.36
2022-12-27T10:59:23.889Z,24985.6
2022-12-27T11:00:24.080Z,24985.6
2022-12-27T11:01:24.844Z,22384.64
2022-12-27T11:02:25.719Z,22384.64
2022-12-27T11:03:26.388Z,19793.92
2022-12-27T11:04:26.547Z,19793.92
2022-12-27T11:05:26.715Z,19793.92
2022-12-27T11:06:26.875Z,22179.84
2022-12-27T11:07:27.021Z,24985.6
2022-12-27T11:08:27.171Z,27586.56
2022-12-27T11:09:27.339Z,27586.56
2022-12-27T11:10:27.518Z,27586.56
2022-12-27T11:11:27.665Z,27586.56
2022-12-27T11:12:27.819Z,27586.56
2022-12-27T11:13:27.988Z,30986.24
2022-12-27T11:14:28.137Z,30986.24
2022-12-27T11:15:28.294Z,26992.64
2022-12-27T11:16:28.463Z,20398.08
2022-12-27T11:17:28.765Z,15390.72
2022-12-27T11:18:28.923Z,12195.84
2022-12-27T11:19:29.067Z,10792.96
2022-12-27T11:20:29.233Z,10792.96
2022-12-27T11:21:29.425Z,9635.84
2022-12-27T11:22:29.589Z,8576
2022-12-27T11:23:29.736Z,7715.84
2022-12-27T11:24:29.930Z,6917.12
2022-12-27T11:25:30.077Z,6917.12
2022-12-27T11:26:30.258Z,6917.12
2022-12-27T11:27:30.425Z,6917.12
2022-12-27T11:28:30.664Z,6917.12
2022-12-27T11:29:30.827Z,6917.12
2022-12-27T11:30:30.991Z,7680
2022-12-27T11:31:31.156Z,7680
2022-12-27T11:32:31.571Z,7680
2022-12-27T11:33:31.728Z,7680
2022-12-27T11:34:31.870Z,7680
2022-12-27T11:35:32.035Z,7680
2022-12-27T11:36:32.210Z,7680
2022-12-27T11:37:32.450Z,7680
2022-12-27T11:38:32.629Z,7680
2022-12-27T11:39:32.773Z,7680
2022-12-27T11:40:32.916Z,6917.12
2022-12-27T11:41:33.071Z,6917.12
2022-12-27T11:42:33.229Z,6215.68
2022-12-27T11:43:33.395Z,6215.68
2022-12-27T11:44:33.561Z,6215.68
2022-12-27T11:45:33.748Z,6215.68
2022-12-27T11:46:33.904Z,6215.68
2022-12-27T11:47:34.309Z,6215.68
2022-12-27T11:48:34.455Z,6215.68
2022-12-27T11:49:34.602Z,6215.68
2022-12-27T11:50:34.772Z,6215.68
2022-12-27T11:51:34.925Z,6215.68
2022-12-27T11:52:35.104Z,6036.48
2022-12-27T11:53:35.262Z,6036.48
2022-12-27T11:54:35.417Z,6036.48
2022-12-27T11:55:35.603Z,6036.48
2022-12-27T11:56:35.768Z,6036.48
2022-12-27T11:57:35.928Z,6036.48
2022-12-27T11:58:36.083Z,6036.48
2022-12-27T11:59:36.241Z,6036.48
2022-12-27T12:00:36.404Z,6036.48
2022-12-27T12:01:36.578Z,6036.48
2022-12-27T12:02:36.921Z,5555.2
2022-12-27T12:03:37.295Z,5555.2
2022-12-27T12:04:37.502Z,5555.2
2022-12-27T12:05:38.110Z,5555.2
2022-12-27T12:06:38.260Z,4938.24
2022-12-27T12:07:38.426Z,4398.08
2022-12-27T12:08:38.576Z,3919.36
2022-12-27T12:09:38.732Z,3520
2022-12-27T12:10:38.876Z,3520
2022-12-27T12:11:39.033Z,3520
2022-12-27T12:12:39.183Z,3520
2022-12-27T12:13:39.354Z,3520
2022-12-27T12:14:39.528Z,3520
2022-12-27T12:15:39.671Z,3520
2022-12-27T12:16:39.828Z,3520
2022-12-27T12:17:40.156Z,3520
2022-12-27T12:18:40.341Z,3520
2022-12-27T12:19:40.512Z,3217.92
2022-12-27T12:20:43.231Z,3217.92
2022-12-27T12:21:51.334Z,3179.52
2022-12-27T12:22:51.492Z,3179.52
2022-12-27T12:23:51.658Z,3179.52
2022-12-27T12:24:51.814Z,3179.52
2022-12-27T12:25:51.979Z,3179.52
2022-12-27T12:26:55.780Z,3179.52
2022-12-27T12:27:56.320Z,3159.04
2022-12-27T12:28:58.531Z,3159.04
2022-12-27T12:30:01.211Z,3578.88
2022-12-27T12:31:01.359Z,3878.4
2022-12-27T12:32:01.557Z,4277.76
2022-12-27T12:33:01.886Z,4277.76
2022-12-27T12:34:02.053Z,4277.76
2022-12-27T12:35:02.227Z,4277.76
2022-12-27T12:36:02.389Z,3840
2022-12-27T12:37:02.563Z,3840
2022-12-27T12:38:02.722Z,3840
2022-12-27T12:39:02.887Z,3840
2022-12-27T12:40:03.039Z,3840
2022-12-27T12:41:03.212Z,3840
2022-12-27T12:42:03.375Z,3840
2022-12-27T12:43:03.546Z,3840
2022-12-27T12:44:03.746Z,3840
2022-12-27T12:45:03.909Z,3840
2022-12-27T12:46:04.140Z,3699.2
2022-12-27T12:47:04.444Z,3699.2
2022-12-27T12:48:04.589Z,3699.2
2022-12-27T12:49:04.770Z,3699.2
2022-12-27T12:50:09.614Z,3699.2
2022-12-27T12:51:14.013Z,3458.56
2022-12-27T12:52:14.177Z,3458.56
2022-12-27T12:53:14.339Z,3317.76
2022-12-27T12:54:14.483Z,3317.76
2022-12-27T12:55:14.630Z,2979.84
2022-12-27T12:56:14.801Z,2979.84
2022-12-27T12:57:14.972Z,2979.84
2022-12-27T12:58:15.162Z,2979.84
2022-12-27T12:59:15.328Z,2979.84
2022-12-27T13:00:15.494Z,2979.84
2022-12-27T13:01:15.745Z,2979.84
2022-12-27T13:02:16.293Z,2979.84
2022-12-27T13:03:17.255Z,2979.84
2022-12-27T13:04:17.536Z,3279.36
2022-12-27T13:05:17.726Z,3279.36
2022-12-27T13:06:17.913Z,3279.36
2022-12-27T13:07:18.062Z,3279.36
2022-12-27T13:08:18.206Z,3279.36
2022-12-27T13:09:18.373Z,3279.36
2022-12-27T13:10:18.528Z,3279.36
2022-12-27T13:11:18.686Z,3279.36
2022-12-27T13:12:18.853Z,3279.36
2022-12-27T13:13:19.019Z,2938.88
2022-12-27T13:14:19.172Z,2618.88
2022-12-27T13:15:19.335Z,2618.88
2022-12-27T13:16:19.545Z,2618.88
2022-12-27T13:17:19.957Z,2339.84
2022-12-27T13:18:22.715Z,2339.84
2022-12-27T13:19:31.020Z,2099.2
2022-12-27T13:20:31.181Z,2099.2
2022-12-27T13:21:31.342Z,2099.2
2022-12-27T13:22:31.493Z,2099.2
2022-12-27T13:23:31.659Z,2099.2
2022-12-27T13:24:31.817Z,2099.2
2022-12-27T13:25:31.989Z,2099.2
2022-12-27T13:26:32.141Z,2319.36
2022-12-27T13:27:32.287Z,2319.36
2022-12-27T13:28:32.439Z,2319.36
2022-12-27T13:29:32.606Z,2560
2022-12-27T13:30:32.810Z,2560
2022-12-27T13:31:33.164Z,2560
2022-12-27T13:32:33.334Z,2560
2022-12-27T13:33:33.506Z,2560
2022-12-27T13:34:33.659Z,2560
2022-12-27T13:35:33.799Z,2560
2022-12-27T13:36:33.973Z,2560
2022-12-27T13:37:34.134Z,2560
2022-12-27T13:38:34.315Z,2298.88
2022-12-27T13:39:34.471Z,2298.88